Time;durP1;ratioP1;P1;durP2;ratioP2;P2;SDS_P1;SDS_P2;PMS_P1;PMS_P2;Temp;Humidity;BMP_temperature;BMP_pressure;BME280_temperature;BME280_humidity;BME280_pressure;Samples;Min_cycle;Max_cycle;Signal;HPM_P1;HPM_P2
2023/12/23 00:01:34;;;;;;;1.80;1.70;;;9.00;99.90;;;;;;5081951;28;20040;-89
2023/12/23 00:04:01;;;;;;;1.80;1.70;;;9.00;99.90;;;;;;5086460;28;20043;-92
2023/12/23 00:06:26;;;;;;;1.92;1.83;;;9.00;99.90;;;;;;5086198;28;20127;-89
2023/12/23 00:08:52;;;;;;;1.90;1.80;;;9.00;99.90;;;;;;5067999;28;20052;-89
2023/12/23 00:11:18;;;;;;;1.52;1.42;;;9.00;99.90;;;;;;5085815;28;20040;-91
2023/12/23 00:13:44;;;;;;;1.90;1.80;;;9.00;99.90;;;;;;5070189;28;20124;-89
2023/12/23 00:16:09;;;;;;;1.80;1.70;;;9.10;99.90;;;;;;5064820;28;20040;-90
2023/12/23 00:18:35;;;;;;;1.58;1.48;;;9.10;99.90;;;;;;5065928;28;20481;-91
2023/12/23 00:21:01;;;;;;;1.90;1.80;;;9.20;99.90;;;;;;5083639;28;20059;-90
2023/12/23 00:23:26;;;;;;;1.90;1.80;;;9.20;99.90;;;;;;5065867;28;20047;-88
2023/12/23 00:25:52;;;;;;;1.90;1.80;;;9.20;99.90;;;;;;5064888;28;20096;-91
2023/12/23 00:28:18;;;;;;;2.10;2.00;;;9.20;99.90;;;;;;5085477;28;20096;-90
2023/12/23 00:30:43;;;;;;;1.70;1.60;;;9.20;99.90;;;;;;5081777;28;20044;-89
2023/12/23 00:33:09;;;;;;;2.00;1.90;;;9.20;99.90;;;;;;5067271;28;20096;-90
2023/12/23 00:35:35;;;;;;;1.70;1.60;;;9.20;99.90;;;;;;5074712;28;20112;-90
2023/12/23 00:38:00;;;;;;;1.90;1.80;;;9.20;99.90;;;;;;5069275;28;20052;-92
2023/12/23 00:40:26;;;;;;;2.00;1.90;;;9.20;99.90;;;;;;5069443;28;20047;-90
2023/12/23 00:42:52;;;;;;;2.00;1.90;;;9.20;99.90;;;;;;5087920;28;20496;-91
2023/12/23 00:45:17;;;;;;;2.10;2.00;;;9.20;99.90;;;;;;5082712;28;20071;-91
2023/12/23 00:47:43;;;;;;;1.80;1.70;;;9.20;99.90;;;;;;5064721;28;20053;-89
2023/12/23 00:50:09;;;;;;;2.00;1.90;;;9.30;99.90;;;;;;5071507;28;20489;-89
2023/12/23 00:52:35;;;;;;;2.00;1.90;;;9.30;99.90;;;;;;5067157;28;20040;-91
2023/12/23 00:55:02;;;;;;;2.00;1.90;;;9.30;99.90;;;;;;5072975;28;20047;-90
2023/12/23 00:57:30;;;;;;;2.00;1.90;;;9.30;99.90;;;;;;5070963;28;20123;-91
2023/12/23 00:59:56;;;;;;;2.00;1.90;;;9.30;99.90;;;;;;5069957;28;20102;-91
2023/12/23 01:02:21;;;;;;;1.90;1.80;;;9.30;99.90;;;;;;5087936;28;20043;-90
2023/12/23 01:04:47;;;;;;;1.90;1.80;;;9.30;99.90;;;;;;5071283;28;20059;-90
2023/12/23 01:07:13;;;;;;;1.90;1.80;;;9.30;99.90;;;;;;5072580;28;20076;-90
2023/12/23 01:09:39;;;;;;;1.90;1.80;;;9.40;99.90;;;;;;5073947;28;21629;-91
2023/12/23 01:12:05;;;;;;;1.58;1.48;;;9.40;99.90;;;;;;5077335;28;20067;-90
2023/12/23 01:14:31;;;;;;;2.00;1.90;;;9.40;99.90;;;;;;5071015;28;20043;-91
2023/12/23 01:16:57;;;;;;;1.48;1.40;;;9.40;99.90;;;;;;5071802;28;20043;-92
2023/12/23 01:19:22;;;;;;;1.98;1.88;;;9.30;99.90;;;;;;5088587;28;20043;-91
2023/12/23 01:21:48;;;;;;;2.00;1.90;;;9.40;99.90;;;;;;5076754;28;20822;-91
2023/12/23 01:24:14;;;;;;;2.00;1.90;;;9.40;99.90;;;;;;5090414;28;20078;-90
2023/12/23 01:26:39;;;;;;;1.90;1.80;;;9.50;99.90;;;;;;5080885;28;20074;-91
2023/12/23 01:29:05;;;;;;;2.00;1.90;;;9.50;99.90;;;;;;5071061;28;20129;-92
2023/12/23 01:31:31;;;;;;;1.90;1.80;;;9.50;99.90;;;;;;5068868;28;20040;-90
2023/12/23 01:33:56;;;;;;;2.00;1.90;;;9.60;99.90;;;;;;5073410;28;20866;-92
2023/12/23 01:36:22;;;;;;;2.10;2.00;;;9.50;99.90;;;;;;5072423;28;20047;-93
2023/12/23 01:38:48;;;;;;;2.10;2.00;;;9.50;99.90;;;;;;5070625;28;20047;-93
2023/12/23 01:41:13;;;;;;;2.00;1.90;;;9.50;99.90;;;;;;5083733;28;20119;-89
2023/12/23 01:43:39;;;;;;;2.08;1.98;;;9.60;99.90;;;;;;5070158;28;20048;-92
2023/12/23 01:46:06;;;;;;;2.30;2.20;;;9.60;99.90;;;;;;5072242;28;20043;-91
2023/12/23 01:48:35;;;;;;;1.98;1.88;;;9.60;99.90;;;;;;5073348;28;20038;-91
2023/12/23 01:51:02;;;;;;;2.00;1.90;;;9.60;99.90;;;;;;5087261;28;20035;-90
2023/12/23 01:53:29;;;;;;;2.00;1.90;;;9.60;99.90;;;;;;5088986;28;20083;-89
2023/12/23 01:55:54;;;;;;;1.90;1.80;;;9.60;99.90;;;;;;5067772;28;20151;-91
2023/12/23 01:58:21;;;;;;;2.05;1.95;;;9.60;99.90;;;;;;5066344;28;20558;-90
2023/12/23 02:00:47;;;;;;;2.10;2.00;;;9.60;99.90;;;;;;5071933;28;20489;-90
2023/12/23 02:03:13;;;;;;;2.17;2.08;;;9.60;99.90;;;;;;5084945;28;20055;-89
2023/12/23 02:05:39;;;;;;;1.95;1.85;;;9.60;99.90;;;;;;5068887;28;20499;-89
2023/12/23 02:08:06;;;;;;;2.15;2.05;;;9.60;99.90;;;;;;5070937;28;20067;-90
2023/12/23 02:10:32;;;;;;;2.10;2.00;;;9.50;99.90;;;;;;5084136;28;20135;-90
2023/12/23 02:13:27;;;;;;;2.30;2.20;;;9.50;99.90;;;;;;5088777;28;20097;-90
2023/12/23 02:15:53;;;;;;;2.17;2.08;;;9.50;99.90;;;;;;5064677;28;20051;-91
2023/12/23 02:18:19;;;;;;;2.20;2.10;;;9.60;99.90;;;;;;5069905;28;20047;-92
2023/12/23 02:20:49;;;;;;;2.00;1.90;;;9.50;99.90;;;;;;5070351;28;20048;-90
2023/12/23 02:23:16;;;;;;;2.10;2.00;;;9.50;99.90;;;;;;5069907;28;20044;-91
2023/12/23 02:25:44;;;;;;;1.90;1.80;;;9.60;99.90;;;;;;5083827;28;20177;-92
2023/12/23 02:28:13;;;;;;;2.20;2.10;;;9.60;99.90;;;;;;5073228;28;20051;-91
2023/12/23 02:30:41;;;;;;;1.90;1.80;;;9.60;99.90;;;;;;5075520;27;20103;-89
2023/12/23 02:33:07;;;;;;;2.20;2.10;;;9.60;99.90;;;;;;5089322;28;20618;-92
2023/12/23 02:35:33;;;;;;;2.20;2.10;;;9.60;99.90;;;;;;5085039;28;20130;-90
2023/12/23 02:37:59;;;;;;;2.20;2.10;;;9.70;99.90;;;;;;5081558;28;20477;-90
2023/12/23 02:40:25;;;;;;;2.30;2.20;;;9.70;99.90;;;;;;5086679;28;20039;-90
2023/12/23 02:42:50;;;;;;;2.40;2.30;;;9.70;99.90;;;;;;5089229;28;20051;-90
2023/12/23 02:45:16;;;;;;;2.10;2.00;;;9.70;99.90;;;;;;5069502;28;20042;-90
2023/12/23 02:47:42;;;;;;;2.20;2.10;;;9.70;99.90;;;;;;5087469;28;20040;-91
2023/12/23 02:50:08;;;;;;;2.10;2.00;;;9.70;99.90;;;;;;5067382;28;20075;-89
2023/12/23 02:52:33;;;;;;;2.35;2.25;;;9.70;99.90;;;;;;5081396;28;20493;-90
2023/12/23 02:54:59;;;;;;;2.40;2.30;;;9.70;99.90;;;;;;5072648;27;20496;-89
2023/12/23 02:57:25;;;;;;;2.30;2.20;;;9.70;99.90;;;;;;5066348;28;20050;-89
2023/12/23 02:59:50;;;;;;;2.20;2.10;;;9.70;99.90;;;;;;5098698;28;20044;-90
2023/12/23 03:02:16;;;;;;;2.20;2.10;;;9.70;99.90;;;;;;5071034;28;20101;-93
2023/12/23 03:04:42;;;;;;;2.30;2.20;;;9.70;99.90;;;;;;5067765;28;20051;-91
2023/12/23 03:07:08;;;;;;;2.35;2.25;;;9.60;99.90;;;;;;5067330;28;20044;-90
2023/12/23 03:09:35;;;;;;;2.28;2.17;;;9.60;99.90;;;;;;5067264;28;20040;-90
2023/12/23 03:12:00;;;;;;;2.45;2.35;;;9.50;99.90;;;;;;5070651;28;20119;-90
2023/12/23 03:14:26;;;;;;;2.10;2.00;;;9.40;99.90;;;;;;5070177;28;20122;-90
2023/12/23 03:16:52;;;;;;;2.00;1.90;;;9.50;99.90;;;;;;5088672;28;20070;-90
2023/12/23 03:19:17;;;;;;;2.10;2.00;;;9.40;99.90;;;;;;5087294;28;20071;-90
2023/12/23 03:21:44;;;;;;;2.00;1.90;;;9.40;99.90;;;;;;5086638;28;20047;-89
2023/12/23 03:24:10;;;;;;;1.90;1.80;;;9.40;99.90;;;;;;5081640;28;20050;-88
2023/12/23 03:26:37;;;;;;;2.20;2.10;;;9.40;99.90;;;;;;5087157;28;20052;-89
2023/12/23 03:29:05;;;;;;;2.10;2.00;;;9.40;99.90;;;;;;5086504;28;20048;-90
2023/12/23 03:31:32;;;;;;;2.00;1.90;;;9.40;99.90;;;;;;5070302;28;20083;-90
2023/12/23 03:33:58;;;;;;;2.00;1.90;;;9.40;99.90;;;;;;5087198;28;20167;-90
2023/12/23 03:36:24;;;;;;;2.00;1.90;;;9.40;99.90;;;;;;5071670;28;20417;-92
2023/12/23 03:38:50;;;;;;;1.95;1.85;;;9.40;99.90;;;;;;5076387;28;20032;-91
2023/12/23 03:41:15;;;;;;;2.20;2.10;;;9.40;99.90;;;;;;5073844;28;20093;-91
2023/12/23 03:43:41;;;;;;;2.00;1.90;;;9.30;99.90;;;;;;5073809;28;20039;-92
2023/12/23 03:46:07;;;;;;;2.15;2.05;;;9.40;99.90;;;;;;5074157;28;20047;-93
2023/12/23 03:48:33;;;;;;;2.00;1.90;;;9.30;99.90;;;;;;5075046;28;20038;-93
2023/12/23 03:50:58;;;;;;;2.08;1.98;;;9.30;99.90;;;;;;5071209;28;20553;-95
2023/12/23 03:53:53;;;;;;;2.10;2.00;;;9.40;99.90;;;;;;5069922;28;20648;-95
2023/12/23 03:56:24;;;;;;;;;;;9.30;99.90;;;;;;5073693;28;20084;-95
2023/12/23 03:59:00;;;;;;;1.98;1.88;;;9.30;99.90;;;;;;5069323;28;19920;-95
2023/12/23 04:01:44;;;;;;;1.98;1.88;;;9.30;99.90;;;;;;5089743;28;20048;-94
2023/12/23 04:04:20;;;;;;;;;;;;;;;;;;;;;
2023/12/23 04:06:51;;;;;;;1.85;1.75;;;9.40;99.90;;;;;;5089600;28;20022;-94
2023/12/23 04:09:17;;;;;;;1.80;1.70;;;9.20;99.90;;;;;;5074154;28;20067;-95
2023/12/23 04:11:43;;;;;;;2.00;1.90;;;9.30;99.90;;;;;;5075104;28;20063;-94
2023/12/23 04:14:09;;;;;;;2.10;2.00;;;9.20;99.90;;;;;;5075695;28;20109;-94
2023/12/23 04:16:39;;;;;;;2.10;2.00;;;9.40;99.90;;;;;;5070207;28;20070;-94
2023/12/23 04:19:05;;;;;;;2.30;2.20;;;9.30;99.90;;;;;;5075357;28;20043;-95
2023/12/23 04:21:30;;;;;;;2.30;2.20;;;9.30;99.90;;;;;;5072539;28;20040;-95
2023/12/23 04:23:58;;;;;;;2.30;2.20;;;9.40;99.90;;;;;;5073373;28;20040;-95
2023/12/23 04:26:26;;;;;;;2.30;2.20;;;9.30;99.90;;;;;;5073461;28;20067;-95
2023/12/23 04:28:51;;;;;;;2.30;2.20;;;9.30;99.90;;;;;;5073840;28;20053;-94
2023/12/23 04:31:17;;;;;;;2.35;2.25;;;9.20;99.90;;;;;;5078313;28;20126;-94
2023/12/23 04:33:43;;;;;;;2.40;2.30;;;9.50;99.90;;;;;;5096913;28;20126;-94
2023/12/23 04:36:09;;;;;;;2.40;2.30;;;9.50;99.90;;;;;;5078367;28;20035;-95
2023/12/23 04:38:35;;;;;;;2.58;2.47;;;9.50;99.90;;;;;;5072002;28;20044;-95
2023/12/23 04:41:01;;;;;;;2.53;2.42;;;9.30;99.90;;;;;;5077917;28;20051;-94
2023/12/23 04:43:30;;;;;;;2.30;2.20;;;9.60;99.90;;;;;;5078215;28;20048;-94
2023/12/23 04:45:56;;;;;;;2.50;2.40;;;9.50;99.90;;;;;;5079232;28;20040;-95
2023/12/23 04:48:22;;;;;;;2.40;2.30;;;9.20;99.90;;;;;;5078760;28;20528;-94
2023/12/23 04:50:51;;;;;;;2.60;2.50;;;9.20;99.90;;;;;;5113686;28;20043;-94
2023/12/23 04:53:17;;;;;;;2.45;2.35;;;9.20;99.90;;;;;;5073931;28;20107;-94
2023/12/23 04:55:43;;;;;;;2.40;2.30;;;9.20;99.90;;;;;;5079115;28;20118;-94
2023/12/23 04:58:09;;;;;;;2.65;2.55;;;9.30;99.90;;;;;;5077225;28;20184;-94
2023/12/23 05:00:37;;;;;;;2.80;2.60;;;9.40;99.90;;;;;;5076480;28;20039;-95
2023/12/23 05:03:08;;;;;;;2.60;2.50;;;9.60;99.90;;;;;;5072526;28;20164;-95
2023/12/23 05:05:34;;;;;;;2.90;2.70;;;9.30;99.90;;;;;;5078472;28;20151;-95
2023/12/23 05:08:02;;;;;;;2.53;2.42;;;9.40;99.90;;;;;;5074732;28;20472;-95
2023/12/23 05:10:28;;;;;;;2.70;2.60;;;9.60;99.90;;;;;;5075372;28;20032;-95
2023/12/23 05:13:10;;;;;;;3.08;2.88;;;9.50;99.90;;;;;;5075952;28;20043;-95
2023/12/23 05:15:57;;;;;;;2.60;2.50;;;9.30;99.90;;;;;;5076386;28;20055;-95
2023/12/23 05:24:37;;;;;;;3.00;2.80;;;9.30;99.90;;;;;;5064125;28;20036;-95
2023/12/23 05:27:11;;;;;;;2.78;2.63;;;9.30;99.90;;;;;;5075157;28;20036;-95
2023/12/23 05:29:37;;;;;;;3.00;2.80;;;9.50;99.90;;;;;;5075010;28;20101;-94
2023/12/23 05:32:36;;;;;;;3.08;2.88;;;9.60;99.90;;;;;;5077054;28;20497;-95
2023/12/23 05:35:49;;;;;;;2.55;2.45;;;9.40;99.90;;;;;;5074629;28;20714;-96
2023/12/23 05:38:30;;;;;;;3.03;2.83;;;9.40;99.90;;;;;;4977049;28;20102;-95
2023/12/23 05:41:52;;;;;;;2.50;2.40;;;9.40;99.90;;;;;;4990410;28;20053;-96
2023/12/23 05:44:18;;;;;;;2.50;2.40;;;9.70;99.90;;;;;;5058436;28;20067;-92
2023/12/23 05:54:49;;;;;;;2.33;2.22;;;10.90;99.90;;;;;;4997244;28;20114;-92
2023/12/23 05:57:19;;;;;;;2.70;2.55;;;11.40;99.90;;;;;;4997788;28;20060;-96
2023/12/23 05:59:44;;;;;;;3.22;3.03;;;11.10;99.90;;;;;;4998653;28;20057;-93
2023/12/23 06:02:19;;;;;;;3.75;3.55;;;11.80;99.90;;;;;;4991240;28;20111;-93
2023/12/23 06:05:00;;;;;;;4.18;3.90;;;12.00;99.90;;;;;;5048431;28;20097;-96
2023/12/23 06:07:40;;;;;;;4.38;4.07;;;12.10;99.90;;;;;;5074518;28;20039;-95
2023/12/23 06:10:09;;;;;;;4.65;4.35;;;11.90;99.90;;;;;;5078070;28;20087;-93
2023/12/23 06:12:35;;;;;;;5.53;5.22;;;11.60;99.90;;;;;;5095604;28;20035;-91
2023/12/23 06:15:16;;;;;;;5.40;5.10;;;12.30;99.90;;;;;;5091675;28;20824;-91
2023/12/23 06:17:59;;;;;;;4.95;4.65;;;12.20;99.90;;;;;;5074327;28;20074;-92
2023/12/23 06:20:25;;;;;;;5.68;5.35;;;12.30;99.90;;;;;;5095202;27;20051;-93
2023/12/23 06:22:51;;;;;;;4.90;4.60;;;12.10;99.90;;;;;;5073776;28;20054;-92
2023/12/23 06:25:17;;;;;;;4.25;4.05;;;11.90;99.90;;;;;;5095730;28;20040;-91
2023/12/23 06:27:54;;;;;;;4.70;4.40;;;11.90;99.90;;;;;;5072337;28;20097;-94
2023/12/23 06:30:26;;;;;;;3.97;3.78;;;11.90;99.90;;;;;;5076086;28;20122;-95
2023/12/23 06:32:51;;;;;;;4.35;4.15;;;12.00;99.90;;;;;;5075566;28;20136;-89
2023/12/23 06:35:20;;;;;;;4.65;4.38;;;12.40;99.90;;;;;;5075961;28;20140;-92
2023/12/23 06:37:52;;;;;;;3.97;3.78;;;12.60;99.90;;;;;;5077745;28;20047;-96
2023/12/23 06:40:20;;;;;;;3.75;3.55;;;12.40;99.90;;;;;;5078007;28;20044;-91
2023/12/23 06:42:49;;;;;;;3.38;3.17;;;12.10;99.90;;;;;;5076341;28;20077;-94
2023/12/23 06:45:30;;;;;;;3.20;3.00;;;12.20;99.90;;;;;;5076438;28;20489;-94
2023/12/23 06:47:58;;;;;;;3.65;3.45;;;12.40;99.90;;;;;;5074285;28;20100;-92
2023/12/23 06:50:43;;;;;;;3.60;3.40;;;12.60;99.90;;;;;;5076654;28;20048;-95
2023/12/23 06:53:18;;;;;;;3.35;3.15;;;12.30;99.90;;;;;;5084857;28;20060;-93
2023/12/23 06:55:50;;;;;;;3.50;3.30;;;12.30;99.90;;;;;;5077647;28;20051;-96
2023/12/23 06:58:29;;;;;;;3.63;3.42;;;12.40;99.90;;;;;;5076016;28;20043;-95
2023/12/23 07:01:13;;;;;;;4.13;3.92;;;12.70;99.90;;;;;;5094903;28;20039;-96
2023/12/23 07:04:11;;;;;;;4.63;4.40;;;12.70;99.90;;;;;;5077430;28;20044;-95
2023/12/23 07:06:52;;;;;;;5.05;4.75;;;12.20;99.90;;;;;;5076336;28;20047;-95
2023/12/23 07:09:18;;;;;;;5.07;4.78;;;12.30;99.90;;;;;;5092897;28;20047;-95
2023/12/23 07:12:13;;;;;;;3.42;3.22;;;12.70;99.90;;;;;;5095117;28;20058;-94
2023/12/23 07:14:47;;;;;;;3.35;3.15;;;12.40;99.90;;;;;;5075937;28;20527;-93
2023/12/23 07:17:40;;;;;;;3.63;3.42;;;12.50;99.90;;;;;;5075250;28;20048;-95
2023/12/23 07:23:16;;;;;;;3.67;3.47;;;12.40;99.90;;;;;;5053316;28;20048;-93
2023/12/23 07:26:02;;;;;;;4.20;4.00;;;12.90;99.90;;;;;;5073772;28;20538;-94
2023/12/23 07:28:27;;;;;;;3.75;3.55;;;12.50;99.90;;;;;;5093646;28;20051;-91
2023/12/23 07:31:21;;;;;;;4.47;4.28;;;12.70;99.90;;;;;;5074005;28;20123;-96
2023/12/23 07:33:47;;;;;;;4.07;3.88;;;12.70;99.90;;;;;;5076000;28;20074;-93
2023/12/23 07:36:15;;;;;;;4.07;3.88;;;12.80;99.90;;;;;;5078096;28;20055;-95
2023/12/23 07:38:41;;;;;;;5.93;5.57;;;12.50;99.90;;;;;;5075542;28;20099;-94
2023/12/23 07:41:14;;;;;;;4.00;3.80;;;12.60;99.90;;;;;;5079539;28;20040;-96
2023/12/23 07:43:40;;;;;;;4.68;4.38;;;12.60;99.90;;;;;;5073533;28;20051;-93
2023/12/23 07:46:55;;;;;;;4.85;4.55;;;12.90;99.90;;;;;;5074843;28;20039;-95
2023/12/23 07:50:08;;;;;;;5.45;5.15;;;13.00;99.90;;;;;;5075483;28;20054;-94
2023/12/23 07:53:00;;;;;;;4.10;3.90;;;12.70;99.90;;;;;;5065602;28;20073;-96
2023/12/23 07:55:57;;;;;;;4.32;4.13;;;12.80;99.90;;;;;;5045223;28;20139;-96
2023/12/23 07:58:35;;;;;;;4.20;4.00;;;12.70;99.90;;;;;;5074877;28;20065;-95
2023/12/23 08:01:33;;;;;;;4.13;3.92;;;13.10;99.90;;;;;;5081624;28;20043;-94
2023/12/23 08:04:07;;;;;;;4.07;3.88;;;13.00;99.90;;;;;;5074145;28;20044;-96
2023/12/23 08:06:39;;;;;;;4.35;4.13;;;12.70;99.90;;;;;;5071322;28;20039;-96
2023/12/23 08:09:07;;;;;;;4.50;4.28;;;13.10;99.90;;;;;;5072210;28;20032;-96
2023/12/23 08:12:01;;;;;;;4.40;4.18;;;12.80;99.90;;;;;;5070974;28;20054;-95
2023/12/23 08:14:49;;;;;;;5.18;4.88;;;13.00;99.90;;;;;;5073354;28;20072;-96
2023/12/23 08:17:26;;;;;;;5.20;4.90;;;12.70;99.90;;;;;;5077567;28;20071;-94
2023/12/23 08:19:55;;;;;;;4.43;4.18;;;12.80;99.90;;;;;;5076922;28;20044;-94
2023/12/23 08:22:31;;;;;;;5.95;5.65;;;12.80;99.90;;;;;;5075108;28;20035;-91
2023/12/23 08:25:07;;;;;;;5.50;5.20;;;13.10;99.90;;;;;;5076010;28;20126;-94
2023/12/23 08:27:53;;;;;;;4.68;4.38;;;12.80;99.90;;;;;;5076942;28;20112;-96
2023/12/23 08:30:26;;;;;;;5.72;5.43;;;12.70;99.90;;;;;;5074296;28;20104;-96
2023/12/23 08:35:49;;;;;;;6.28;5.88;;;12.80;99.90;;;;;;5091895;28;20051;-92
2023/12/23 08:41:57;;;;;;;5.78;5.47;;;12.80;99.90;;;;;;5088095;28;20059;-96
2023/12/23 08:44:38;;;;;;;6.82;6.43;;;12.90;99.90;;;;;;5091997;28;20124;-93
2023/12/23 08:47:04;;;;;;;5.82;5.53;;;13.00;99.90;;;;;;5088117;28;20040;-96
2023/12/23 08:49:39;;;;;;;5.00;4.70;;;13.10;99.90;;;;;;5075456;28;20055;-95
2023/12/23 08:52:14;;;;;;;5.95;5.63;;;13.10;99.90;;;;;;5077444;28;20055;-95
2023/12/23 08:55:26;;;;;;;5.47;5.18;;;12.80;99.90;;;;;;5063708;28;20509;-96
2023/12/23 08:58:02;;;;;;;;;;;;;;;;;;;;;
2023/12/23 09:00:58;;;;;;;6.53;6.13;;;13.10;99.90;;;;;;5089582;28;20711;-94
2023/12/23 09:03:31;;;;;;;5.38;5.07;;;13.10;99.90;;;;;;5074012;28;20048;-95
2023/12/23 09:06:23;;;;;;;5.90;5.55;;;13.10;99.90;;;;;;5090861;28;20435;-95
2023/12/23 09:08:54;;;;;;;5.35;5.05;;;13.00;99.90;;;;;;5033964;28;20056;-96
2023/12/23 09:11:53;;;;;;;6.45;6.05;;;12.90;99.90;;;;;;5017986;28;20104;-94
2023/12/23 09:15:03;;;;;;;5.72;5.38;;;13.00;99.90;;;;;;5007496;28;20050;-96
2023/12/23 09:17:50;;;;;;;7.57;7.13;;;13.00;99.90;;;;;;5008195;28;20052;-96
2023/12/23 09:20:25;;;;;;;6.47;6.07;;;13.10;99.90;;;;;;5057235;28;20044;-96
2023/12/23 09:23:00;;;;;;;6.25;5.85;;;12.90;99.90;;;;;;5077479;28;20051;-93
2023/12/23 09:25:34;;;;;;;7.07;6.68;;;12.90;99.90;;;;;;5067713;28;20058;-94
2023/12/23 09:28:29;;;;;;;5.63;5.30;;;13.10;99.90;;;;;;5096840;28;20405;-95
2023/12/23 09:30:58;;;;;;;6.78;6.38;;;12.90;99.90;;;;;;5074626;28;20067;-93
2023/12/23 09:33:24;;;;;;;5.90;5.55;;;13.00;99.90;;;;;;5081978;28;20036;-96
2023/12/23 09:36:04;;;;;;;7.07;6.68;;;13.10;99.90;;;;;;5076091;28;20048;-95
2023/12/23 09:38:30;;;;;;;6.70;6.30;;;12.90;99.90;;;;;;5076904;28;20040;-93
2023/12/23 09:41:02;;;;;;;7.13;6.72;;;12.90;99.90;;;;;;5083862;28;20039;-94
2023/12/23 09:43:33;;;;;;;6.90;6.50;;;12.90;99.90;;;;;;5084286;28;20023;-89
2023/12/23 09:46:08;;;;;;;7.28;6.88;;;12.80;99.90;;;;;;5102312;28;20016;-96
2023/12/23 09:48:45;;;;;;;6.68;6.28;;;13.10;99.90;;;;;;5081933;28;20040;-92
2023/12/23 09:52:06;;;;;;;6.90;6.50;;;13.00;99.90;;;;;;5084133;28;20039;-96
2023/12/23 09:55:24;;;;;;;6.68;6.28;;;13.00;99.90;;;;;;5098280;28;20085;-96
2023/12/23 10:01:41;;;;;;;6.82;6.43;;;12.80;99.90;;;;;;5028457;28;20051;-93
2023/12/23 10:04:10;;;;;;;6.28;5.88;;;13.00;99.90;;;;;;5078472;28;20063;-90
2023/12/23 10:06:41;;;;;;;7.07;6.68;;;13.10;99.90;;;;;;5080730;28;20043;-96
2023/12/23 10:09:19;;;;;;;6.45;6.05;;;12.90;99.90;;;;;;5072397;28;20766;-96
2023/12/23 10:12:06;;;;;;;5.68;5.32;;;13.00;99.90;;;;;;5077015;28;20493;-94
2023/12/23 10:14:49;;;;;;;6.25;5.85;;;12.90;99.90;;;;;;5065999;28;20105;-96
2023/12/23 10:17:55;;;;;;;7.25;6.85;;;13.10;99.90;;;;;;5092081;28;20130;-96
2023/12/23 10:20:45;;;;;;;6.07;5.70;;;12.90;99.90;;;;;;5098149;28;20055;-96
2023/12/23 10:23:20;;;;;;;5.57;5.25;;;13.10;99.90;;;;;;5083141;28;20047;-95
2023/12/23 10:26:34;;;;;;;6.53;6.13;;;13.00;99.90;;;;;;5061231;28;20047;-96
2023/12/23 10:34:05;;;;;;;5.55;5.22;;;13.10;99.90;;;;;;5027424;28;20460;-94
2023/12/23 10:36:42;;;;;;;7.05;6.65;;;12.90;99.90;;;;;;5048907;28;20053;-95
2023/12/23 10:39:58;;;;;;;6.10;5.70;;;13.00;99.90;;;;;;5078586;28;20096;-94
2023/12/23 10:43:02;;;;;;;6.28;5.88;;;13.10;99.90;;;;;;5096324;28;21340;-94
2023/12/23 10:48:40;;;;;;;5.55;5.22;;;12.90;99.90;;;;;;5045591;28;20090;-94
2023/12/23 10:51:51;;;;;;;6.10;5.72;;;13.00;99.90;;;;;;5075332;28;20478;-95
2023/12/23 10:54:24;;;;;;;5.82;5.47;;;13.10;99.90;;;;;;5035147;28;20088;-95
2023/12/23 10:56:58;;;;;;;6.07;5.70;;;13.10;99.90;;;;;;5019715;28;20577;-95
2023/12/23 11:00:30;;;;;;;6.32;5.95;;;13.00;99.90;;;;;;5030171;28;20057;-95
2023/12/23 11:06:52;;;;;;;6.32;5.93;;;12.90;99.90;;;;;;5046436;28;20053;-95
2023/12/23 11:09:41;;;;;;;6.25;5.88;;;13.00;99.90;;;;;;5075230;28;20055;-94
2023/12/23 11:12:33;;;;;;;6.22;5.85;;;13.10;99.90;;;;;;5081705;28;20538;-95
2023/12/23 11:15:08;;;;;;;5.90;5.55;;;12.90;99.90;;;;;;5067806;28;21190;-96
2023/12/23 11:17:42;;;;;;;5.95;5.60;;;13.00;99.90;;;;;;5070667;28;20040;-96
2023/12/23 11:20:33;;;;;;;6.20;5.82;;;13.00;99.90;;;;;;5082114;28;20051;-94
2023/12/23 11:23:35;;;;;;;5.45;5.15;;;13.00;99.90;;;;;;5078662;28;20443;-96
2023/12/23 11:26:41;;;;;;;6.43;6.03;;;13.10;99.90;;;;;;5088587;28;20409;-95
2023/12/23 11:32:36;;;;;;;5.90;5.55;;;13.20;99.90;;;;;;5064224;28;20050;-96
2023/12/23 11:35:27;;;;;;;5.78;5.45;;;13.00;99.90;;;;;;5081138;28;20058;-94
2023/12/23 11:38:10;;;;;;;5.95;5.60;;;13.10;99.90;;;;;;5094920;28;20299;-92
2023/12/23 11:41:22;;;;;;;6.25;5.88;;;13.00;99.90;;;;;;5074554;28;20048;-95
2023/12/23 11:43:56;;;;;;;5.75;5.40;;;13.10;99.90;;;;;;5076489;28;20040;-94
2023/12/23 11:46:30;;;;;;;5.03;4.72;;;13.20;99.90;;;;;;5078400;28;20058;-94
2023/12/23 11:49:16;;;;;;;5.68;5.35;;;13.30;99.90;;;;;;5077634;28;20062;-92
2023/12/23 11:51:42;;;;;;;5.97;5.63;;;13.20;99.90;;;;;;5075570;28;20059;-92
2023/12/23 11:54:11;;;;;;;6.00;5.65;;;13.30;99.90;;;;;;5075892;28;20484;-93
2023/12/23 11:57:02;;;;;;;5.88;5.55;;;13.20;99.90;;;;;;5078098;28;20484;-93
2023/12/23 12:03:38;;;;;;;6.28;5.90;;;13.20;99.90;;;;;;5094597;28;20058;-95
2023/12/23 12:06:16;;;;;;;6.57;6.18;;;13.20;99.90;;;;;;5069145;28;20070;-96
2023/12/23 12:08:55;;;;;;;5.88;5.53;;;13.30;99.90;;;;;;5072118;28;20062;-96
2023/12/23 12:11:24;;;;;;;6.57;6.18;;;13.20;99.90;;;;;;5074918;28;20380;-94
2023/12/23 12:14:07;;;;;;;5.80;5.45;;;13.20;99.90;;;;;;5075279;28;20043;-95
2023/12/23 12:20:32;;;;;;;6.28;5.90;;;13.30;99.90;;;;;;5068796;28;20051;-96
2023/12/23 12:26:32;;;;;;;6.85;6.45;;;13.40;99.90;;;;;;4988843;28;20054;-94
2023/12/23 12:29:22;;;;;;;6.82;6.43;;;13.50;99.90;;;;;;5073199;28;20093;-94
2023/12/23 12:35:13;;;;;;;;;;;13.60;99.90;;;;;;5031135;28;20644;-92
2023/12/23 12:37:45;;;;;;;7.38;6.93;;;13.60;99.90;;;;;;5061317;28;19926;-96
2023/12/23 12:44:11;;;;;;;6.68;6.28;;;13.60;99.90;;;;;;5104118;28;20055;-96
2023/12/23 12:47:05;;;;;;;6.72;6.32;;;13.60;99.90;;;;;;5076563;28;20101;-93
2023/12/23 12:49:39;;;;;;;7.30;6.88;;;13.60;99.90;;;;;;5074063;28;20630;-94
2023/12/23 12:55:15;;;;;;;7.95;7.45;;;13.60;99.90;;;;;;5084677;28;20067;-95
2023/12/23 12:58:07;;;;;;;6.95;6.55;;;13.60;99.90;;;;;;5078697;28;20039;-96
2023/12/23 13:00:42;;;;;;;6.93;6.53;;;13.60;99.90;;;;;;5076547;28;20043;-95
2023/12/23 13:03:11;;;;;;;6.78;6.38;;;13.60;99.90;;;;;;5094947;28;20040;-90
2023/12/23 13:05:46;;;;;;;6.45;6.05;;;13.50;99.90;;;;;;5080013;28;20036;-94
2023/12/23 13:08:28;;;;;;;6.95;6.55;;;13.60;99.90;;;;;;5074565;28;20059;-95
2023/12/23 13:10:59;;;;;;;6.75;6.35;;;13.60;99.90;;;;;;5076694;28;20051;-95
2023/12/23 13:13:28;;;;;;;6.88;6.47;;;13.70;99.90;;;;;;5093230;28;20040;-92
2023/12/23 13:15:56;;;;;;;6.65;6.25;;;13.60;99.90;;;;;;5075280;28;20055;-94
2023/12/23 13:18:22;;;;;;;6.47;6.07;;;13.60;99.90;;;;;;5092840;28;20039;-93
2023/12/23 13:20:48;;;;;;;6.68;6.28;;;13.60;99.90;;;;;;5075846;28;20583;-95
2023/12/23 13:23:23;;;;;;;6.68;6.28;;;13.60;99.90;;;;;;5076567;28;20763;-94
2023/12/23 13:25:54;;;;;;;6.68;6.28;;;13.60;99.90;;;;;;5077863;28;20066;-96
2023/12/23 13:28:23;;;;;;;6.78;6.38;;;13.60;99.90;;;;;;5096423;28;20039;-95
2023/12/23 13:30:49;;;;;;;6.88;6.47;;;13.70;99.90;;;;;;5075458;28;20039;-93
2023/12/23 13:36:08;;;;;;;6.90;6.50;;;13.60;99.90;;;;;;5051543;28;20052;-94
2023/12/23 13:38:37;;;;;;;7.32;6.93;;;13.70;99.90;;;;;;5077581;28;20039;-95
2023/12/23 13:41:15;;;;;;;6.68;6.28;;;13.70;99.90;;;;;;5079869;28;20120;-95
2023/12/23 13:43:49;;;;;;;6.85;6.45;;;13.70;99.90;;;;;;5076111;28;20164;-94
2023/12/23 13:46:15;;;;;;;6.80;6.40;;;13.60;99.90;;;;;;5088868;28;20548;-93
2023/12/23 13:48:56;;;;;;;6.88;6.47;;;13.60;99.90;;;;;;5091449;28;20071;-96
2023/12/23 13:51:22;;;;;;;6.72;6.32;;;13.70;99.90;;;;;;5075695;28;20043;-92
2023/12/23 13:53:48;;;;;;;6.55;6.15;;;13.70;99.90;;;;;;5068460;28;20060;-89
2023/12/23 13:56:14;;;;;;;6.55;6.15;;;13.70;99.90;;;;;;5089487;28;20052;-89
2023/12/23 13:58:39;;;;;;;6.68;6.28;;;13.70;99.90;;;;;;5086496;28;20043;-93
2023/12/23 14:01:05;;;;;;;6.78;6.38;;;13.60;99.90;;;;;;5073429;28;20169;-93
2023/12/23 14:03:31;;;;;;;7.22;6.78;;;13.60;99.90;;;;;;5073744;28;20082;-87
2023/12/23 14:06:00;;;;;;;6.43;6.03;;;13.60;99.90;;;;;;5070619;28;20048;-87
2023/12/23 14:08:26;;;;;;;6.85;6.45;;;13.50;99.90;;;;;;5092725;28;20036;-91
2023/12/23 14:10:58;;;;;;;6.40;6.00;;;13.40;99.90;;;;;;5074763;28;20055;-95
2023/12/23 14:13:27;;;;;;;6.65;6.25;;;13.30;99.90;;;;;;5089269;28;20054;-93
2023/12/23 14:15:53;;;;;;;7.05;6.65;;;13.20;99.90;;;;;;5090156;28;20044;-95
2023/12/23 14:18:18;;;;;;;6.90;6.50;;;13.20;99.90;;;;;;5093077;28;20040;-93
2023/12/23 14:20:44;;;;;;;7.72;7.22;;;13.20;99.90;;;;;;5073510;28;20050;-92
2023/12/23 14:23:10;;;;;;;7.15;6.75;;;13.10;99.90;;;;;;5071956;28;20056;-91
2023/12/23 14:25:38;;;;;;;7.07;6.68;;;12.90;99.90;;;;;;5077731;28;20065;-95
2023/12/23 14:28:07;;;;;;;7.07;6.68;;;13.00;99.90;;;;;;5072750;28;20040;-93
2023/12/23 14:30:42;;;;;;;7.78;7.28;;;13.00;99.90;;;;;;5073522;28;20043;-94
2023/12/23 14:33:07;;;;;;;7.05;6.65;;;13.00;99.90;;;;;;5077944;28;20040;-94
2023/12/23 14:35:44;;;;;;;6.78;6.38;;;13.00;99.90;;;;;;5095160;28;20630;-93